Time,TemperatureF,DewpointF,PressureIn,WindDirection,WindDirectionDegrees,WindSpeedMPH,WindSpeedGustMPH,Humidity,HourlyPrecipIn,Conditions,Clouds,dailyrainin,SoftwareType,DateUTC
2013-07-15 00:14:00,75.8,75.0,30.21,SSE,148,0.0,0.0,97,0.00,,,0.00,weatherlink.com 1.10,2013-07-15 04:14:00,
2013-07-15 00:29:00,75.7,75.0,30.20,SSE,148,0.0,0.0,97,0.00,,,0.00,weatherlink.com 1.10,2013-07-15 04:29:00,
2013-07-15 00:44:00,75.7,75.0,30.20,SSE,148,0.0,0.0,97,0.00,,,0.00,weatherlink.com 1.10,2013-07-15 04:44:00,
2013-07-15 00:59:00,75.8,75.0,30.20,SSE,148,0.0,0.0,97,0.00,,,0.00,weatherlink.com 1.10,2013-07-15 04:59:00,
2013-07-15 01:14:00,75.9,75.0,30.19,SSE,148,0.0,0.0,96,0.00,,,0.00,weatherlink.com 1.10,2013-07-15 05:14:00,
2013-07-15 01:29:00,75.9,75.0,30.19,West,278,0.0,0.0,96,0.00,,,0.00,weatherlink.com 1.10,2013-07-15 05:29:00,
2013-07-15 01:44:00,75.7,75.0,30.19,West,278,0.0,0.0,96,0.00,,,0.00,weatherlink.com 1.10,2013-07-15 05:44:00,
2013-07-15 01:59:00,75.5,74.0,30.19,West,278,0.0,0.0,95,0.00,,,0.00,weatherlink.com 1.10,2013-07-15 05:59:00,
2013-07-15 02:14:00,75.3,74.0,30.19,West,278,0.0,0.0,96,0.00,,,0.00,weatherlink.com 1.10,2013-07-15 06:14:00,
2013-07-15 02:29:00,75.4,74.0,30.19,West,279,0.0,0.0,96,0.00,,,0.00,weatherlink.com 1.10,2013-07-15 06:29:00,
2013-07-15 02:44:00,75.5,74.0,30.18,West,279,0.0,0.0,96,0.00,,,0.00,weatherlink.com 1.10,2013-07-15 06:44:00,
2013-07-15 02:59:00,75.3,74.0,30.18,West,279,0.0,0.0,96,0.00,,,0.00,weatherlink.com 1.10,2013-07-15 06:59:00,
2013-07-15 03:14:00,75.3,74.0,30.18,West,279,0.0,0.0,96,0.00,,,0.00,weatherlink.com 1.10,2013-07-15 07:14:00,
2013-07-15 03:29:00,75.5,74.0,30.18,West,279,0.0,0.0,96,0.00,,,0.00,weatherlink.com 1.10,2013-07-15 07:29:00,
2013-07-15 03:44:00,75.5,74.0,30.18,West,279,0.0,0.0,96,0.00,,,0.00,weatherlink.com 1.10,2013-07-15 07:44:00,
2013-07-15 03:59:00,75.5,74.0,30.18,West,279,0.0,1.0,96,0.00,,,0.00,weatherlink.com 1.10,2013-07-15 07:59:00,
2013-07-15 04:14:00,75.2,74.0,30.18,West,279,0.0,0.0,96,0.00,,,0.00,weatherlink.com 1.10,2013-07-15 08:14:00,
2013-07-15 04:29:00,75.2,74.0,30.18,West,279,0.0,0.0,96,0.00,,,0.00,weatherlink.com 1.10,2013-07-15 08:29:00,
2013-07-15 04:44:00,74.7,74.0,30.18,West,279,0.0,0.0,96,0.00,,,0.00,weatherlink.com 1.10,2013-07-15 08:44:00,
2013-07-15 04:59:00,74.6,73.0,30.18,West,279,0.0,0.0,96,0.00,,,0.00,weatherlink.com 1.10,2013-07-15 08:59:00,
2013-07-15 05:14:00,74.4,74.0,30.18,West,279,0.0,0.0,97,0.00,,,0.00,weatherlink.com 1.10,2013-07-15 09:14:00,
2013-07-15 05:29:00,74.4,74.0,30.19,West,279,0.0,0.0,97,0.00,,,0.00,weatherlink.com 1.10,2013-07-15 09:29:00,
2013-07-15 05:44:00,74.3,73.0,30.18,West,279,0.0,0.0,97,0.00,,,0.00,weatherlink.com 1.10,2013-07-15 09:44:00,
2013-07-15 05:59:00,74.5,74.0,30.18,West,279,0.0,0.0,97,0.00,,,0.00,weatherlink.com 1.10,2013-07-15 09:59:00,
2013-07-15 06:14:00,74.9,74.0,30.19,West,279,0.0,0.0,97,0.00,,,0.00,weatherlink.com 1.10,2013-07-15 10:14:00,
2013-07-15 06:29:00,75.9,75.0,30.19,West,279,0.0,0.0,97,0.00,,,0.00,weatherlink.com 1.10,2013-07-15 10:29:00,
2013-07-15 06:44:00,76.8,75.0,30.19,West,279,0.0,0.0,95,0.00,,,0.00,weatherlink.com 1.10,2013-07-15 10:44:00,
2013-07-15 06:59:00,77.5,76.0,30.19,West,279,0.0,0.0,94,0.00,,,0.00,weatherlink.com 1.10,2013-07-15 10:59:00,
2013-07-15 07:14:00,78.0,76.0,30.19,West,279,0.0,0.0,92,0.00,,,0.00,weatherlink.com 1.10,2013-07-15 11:14:00,
2013-07-15 07:30:00,79.4,76.0,30.19,West,279,0.0,0.0,88,0.00,,,0.00,weatherlink.com 1.10,2013-07-15 11:30:00,
2013-07-15 07:45:00,80.3,76.0,30.19,West,281,0.0,1.0,86,0.00,,,0.00,weatherlink.com 1.10,2013-07-15 11:45:00,
2013-07-15 08:00:00,82.1,76.0,30.19,NW,311,0.0,1.0,82,0.00,,,0.00,weatherlink.com 1.10,2013-07-15 12:00:00,
2013-07-15 08:15:00,83.3,77.0,30.19,NW,316,0.0,1.0,80,0.00,,,0.00,weatherlink.com 1.10,2013-07-15 12:15:00,
2013-07-15 08:30:00,84.6,76.0,30.19,NNW,336,0.0,1.0,76,0.00,,,0.00,weatherlink.com 1.10,2013-07-15 12:30:00,
2013-07-15 08:45:00,86.2,77.0,30.19,ESE,111,0.0,1.0,75,0.00,,,0.00,weatherlink.com 1.10,2013-07-15 12:45:00,
2013-07-15 09:00:00,86.9,76.0,30.18,NE,35,0.0,3.0,70,0.00,,,0.00,weatherlink.com 1.10,2013-07-15 13:00:00,
2013-07-15 09:15:00,86.9,76.0,30.18,NE,42,1.0,3.0,71,0.00,,,0.00,weatherlink.com 1.10,2013-07-15 13:15:00,
2013-07-15 09:30:00,87.0,76.0,30.18,NW,323,0.0,2.0,70,0.00,,,0.00,weatherlink.com 1.10,2013-07-15 13:30:00,
2013-07-15 09:45:00,87.7,76.0,30.18,NW,320,0.0,1.0,69,0.00,,,0.00,weatherlink.com 1.10,2013-07-15 13:45:00,
2013-07-15 10:00:00,88.5,78.0,30.17,SSE,150,0.0,1.0,72,0.00,,,0.00,weatherlink.com 1.10,2013-07-15 14:00:00,
2013-07-15 10:15:00,88.3,75.0,30.17,ENE,78,0.0,2.0,65,0.00,,,0.00,weatherlink.com 1.10,2013-07-15 14:15:00,
2013-07-15 10:30:00,89.0,75.0,30.17,WNW,284,0.0,1.0,64,0.00,,,0.00,weatherlink.com 1.10,2013-07-15 14:30:00,
2013-07-15 10:45:00,89.0,75.0,30.16,WNW,298,0.0,2.0,63,0.00,,,0.00,weatherlink.com 1.10,2013-07-15 14:45:00,
2013-07-15 11:00:00,88.3,73.0,30.16,WNW,283,0.0,2.0,60,0.00,,,0.00,weatherlink.com 1.10,2013-07-15 15:00:00,
2013-07-15 11:15:00,88.9,73.0,30.16,WNW,284,0.0,1.0,59,0.00,,,0.00,weatherlink.com 1.10,2013-07-15 15:15:00,
2013-07-15 11:30:00,87.6,76.0,30.16,ESE,110,1.0,3.0,68,0.00,,,0.00,weatherlink.com 1.10,2013-07-15 15:30:00,
2013-07-15 11:45:00,87.8,76.0,30.16,South,183,1.0,2.0,69,0.00,,,0.00,weatherlink.com 1.10,2013-07-15 15:45:00,
2013-07-15 12:15:00,88.7,77.0,30.15,North,350,1.0,5.0,69,0.00,,,0.00,weatherlink.com 1.10,2013-07-15 16:15:00,
2013-07-15 12:30:00,89.4,76.0,30.15,West,265,0.0,3.0,64,0.00,,,0.00,weatherlink.com 1.10,2013-07-15 16:30:00,
2013-07-15 12:45:00,91.1,72.0,30.14,West,259,1.0,3.0,54,0.00,,,0.00,weatherlink.com 1.10,2013-07-15 16:45:00,
2013-07-15 13:00:00,90.6,74.0,30.14,South,184,0.0,4.0,59,0.00,,,0.00,weatherlink.com 1.10,2013-07-15 17:00:00,
2013-07-15 13:16:00,91.3,75.0,30.14,NE,56,3.0,4.0,59,0.00,,,0.00,weatherlink.com 1.10,2013-07-15 17:16:00,
2013-07-15 13:31:00,88.8,76.0,30.14,SSE,148,1.0,4.0,67,0.00,,,0.00,weatherlink.com 1.10,2013-07-15 17:31:00,
2013-07-15 13:46:00,87.8,76.0,30.14,ESE,110,5.0,5.0,67,0.00,,,0.00,weatherlink.com 1.10,2013-07-15 17:46:00,
2013-07-15 14:01:00,88.1,76.0,30.14,South,191,3.0,5.0,68,0.00,,,0.00,weatherlink.com 1.10,2013-07-15 18:01:00,
2013-07-15 14:16:00,86.6,76.0,30.14,East,91,0.0,3.0,70,0.00,,,0.00,weatherlink.com 1.10,2013-07-15 18:16:00,
2013-07-15 14:31:00,86.2,76.0,30.13,South,169,1.0,5.0,71,0.00,,,0.00,weatherlink.com 1.10,2013-07-15 18:31:00,
2013-07-15 14:46:00,87.0,76.0,30.13,SSW,194,1.0,4.0,69,0.00,,,0.00,weatherlink.com 1.10,2013-07-15 18:46:00,
2013-07-15 15:01:00,87.2,75.0,30.13,SE,141,0.0,5.0,67,0.00,,,0.00,weatherlink.com 1.10,2013-07-15 19:01:00,
2013-07-15 15:16:00,87.3,74.0,30.13,SW,216,1.0,5.0,65,0.00,,,0.00,weatherlink.com 1.10,2013-07-15 19:16:00,
2013-07-15 15:31:00,86.9,75.0,30.12,SSE,162,0.0,4.0,68,0.00,,,0.00,weatherlink.com 1.10,2013-07-15 19:31:00,
2013-07-15 15:46:00,86.6,75.0,30.12,SSW,208,1.0,5.0,69,0.00,,,0.00,weatherlink.com 1.10,2013-07-15 19:46:00,
2013-07-15 16:01:00,85.9,77.0,30.12,South,178,0.0,3.0,75,0.00,,,0.00,weatherlink.com 1.10,2013-07-15 20:01:00,
2013-07-15 16:16:00,84.2,76.0,30.12,SE,127,2.0,4.0,77,0.00,,,0.00,weatherlink.com 1.10,2013-07-15 20:16:00,
2013-07-15 16:31:00,83.6,77.0,30.12,SSE,165,0.0,4.0,79,0.00,,,0.00,weatherlink.com 1.10,2013-07-15 20:31:00,
2013-07-15 16:46:00,83.9,76.0,30.11,East,86,0.0,4.0,77,0.00,,,0.00,weatherlink.com 1.10,2013-07-15 20:46:00,
2013-07-15 17:01:00,84.4,77.0,30.11,ESE,116,1.0,4.0,77,0.00,,,0.00,weatherlink.com 1.10,2013-07-15 21:01:00,
2013-07-15 17:16:00,84.3,76.0,30.11,SSE,156,0.0,3.0,75,0.00,,,0.00,weatherlink.com 1.10,2013-07-15 21:16:00,
2013-07-15 17:31:00,84.5,75.0,30.11,ESE,106,1.0,2.0,74,0.00,,,0.00,weatherlink.com 1.10,2013-07-15 21:31:00,
2013-07-15 17:46:00,84.5,75.0,30.11,SSE,162,0.0,3.0,74,0.00,,,0.00,weatherlink.com 1.10,2013-07-15 21:46:00,
2013-07-15 18:01:00,84.9,76.0,30.11,South,188,0.0,2.0,74,0.00,,,0.00,weatherlink.com 1.10,2013-07-15 22:01:00,
2013-07-15 18:16:00,84.8,77.0,30.11,ESE,107,0.0,2.0,76,0.00,,,0.00,weatherlink.com 1.10,2013-07-15 22:16:00,
2013-07-15 18:31:00,83.2,76.0,30.11,ESE,120,0.0,2.0,80,0.00,,,0.00,weatherlink.com 1.10,2013-07-15 22:31:00,
2013-07-15 18:46:00,82.5,76.0,30.11,ESE,121,0.0,2.0,80,0.00,,,0.00,weatherlink.com 1.10,2013-07-15 22:46:00,
2013-07-15 19:01:00,82.3,76.0,30.11,SE,130,0.0,1.0,81,0.00,,,0.00,weatherlink.com 1.10,2013-07-15 23:01:00,
2013-07-15 19:16:00,81.5,76.0,30.11,SSE,158,0.0,1.0,83,0.00,,,0.00,weatherlink.com 1.10,2013-07-15 23:16:00,
2013-07-15 19:31:00,80.4,76.0,30.11,SE,125,0.0,3.0,85,0.00,,,0.00,weatherlink.com 1.10,2013-07-15 23:31:00,
2013-07-15 19:46:00,79.8,75.0,30.11,SSE,151,0.0,1.0,86,0.00,,,0.00,weatherlink.com 1.10,2013-07-15 23:46:00,
2013-07-15 20:16:00,78.9,75.0,30.11,SW,226,0.0,2.0,87,0.00,,,0.00,weatherlink.com 1.10,2013-07-16 00:16:00,
2013-07-15 20:31:00,78.5,75.0,30.11,ESE,122,0.0,2.0,89,0.00,,,0.00,weatherlink.com 1.10,2013-07-16 00:31:00,
2013-07-15 20:46:00,78.0,75.0,30.11,SSE,164,0.0,2.0,90,0.00,,,0.00,weatherlink.com 1.10,2013-07-16 00:46:00,
2013-07-15 21:01:00,77.7,75.0,30.12,SSE,164,0.0,1.0,91,0.00,,,0.00,weatherlink.com 1.10,2013-07-16 01:01:00,
2013-07-15 21:16:00,77.3,75.0,30.12,SSE,165,0.0,0.0,92,0.00,,,0.00,weatherlink.com 1.10,2013-07-16 01:16:00,
2013-07-15 21:31:00,77.3,75.0,30.12,South,171,0.0,2.0,91,0.00,,,0.00,weatherlink.com 1.10,2013-07-16 01:31:00,
2013-07-15 22:01:00,77.0,75.0,30.13,SSE,165,0.0,1.0,92,0.00,,,0.00,weatherlink.com 1.10,2013-07-16 02:01:00,
2013-07-15 22:16:00,76.7,74.0,30.12,SSE,163,0.0,1.0,91,0.00,,,0.00,weatherlink.com 1.10,2013-07-16 02:16:00,
2013-07-15 22:31:00,76.6,74.0,30.12,SSE,163,0.0,0.0,91,0.00,,,0.00,weatherlink.com 1.10,2013-07-16 02:31:00,
2013-07-15 22:46:00,76.1,73.0,30.12,SSE,163,0.0,0.0,91,0.00,,,0.00,weatherlink.com 1.10,2013-07-16 02:46:00,
2013-07-15 23:01:00,75.7,74.0,30.12,SSE,163,0.0,0.0,93,0.00,,,0.00,weatherlink.com 1.10,2013-07-16 03:01:00,
2013-07-15 23:16:00,75.4,74.0,30.12,SSE,163,0.0,0.0,94,0.00,,,0.00,weatherlink.com 1.10,2013-07-16 03:16:00,
2013-07-15 23:46:00,75.2,74.0,30.12,SSE,163,0.0,0.0,95,0.00,,,0.00,weatherlink.com 1.10,2013-07-16 03:46:00,